createdAt,value
2018-12-05T00:00:11.720Z,989.2
2018-12-05T00:02:44.793Z,989.4
2018-12-05T00:03:46.051Z,989.4
2018-12-05T00:04:47.370Z,989.4
2018-12-05T00:05:48.728Z,989.3
2018-12-05T00:06:50.013Z,989.2
2018-12-05T00:07:51.290Z,989.3
2018-12-05T00:08:52.746Z,989.2
2018-12-05T00:09:57.059Z,989.2
2018-12-05T00:10:58.320Z,989.3
2018-12-05T00:13:29.588Z,989.2
2018-12-05T00:14:30.830Z,989.1
2018-12-05T00:15:32.104Z,989.2
2018-12-05T00:16:33.364Z,989.2
2018-12-05T00:17:34.643Z,989.2
2018-12-05T00:18:35.889Z,989.2
2018-12-05T00:19:37.133Z,989.3
2018-12-05T00:20:38.399Z,989.2
2018-12-05T00:21:41.719Z,989.2
2018-12-05T00:22:43.222Z,989.2
2018-12-05T00:23:44.514Z,989.2
2018-12-05T00:24:45.765Z,989.2
2018-12-05T00:25:49.822Z,989.2
2018-12-05T00:26:51.081Z,989.1
2018-12-05T00:27:55.278Z,989.1
2018-12-05T00:28:56.550Z,989.2
2018-12-05T00:29:57.818Z,989.3
2018-12-05T00:30:59.106Z,989.3
2018-12-05T00:32:11.737Z,989
2018-12-05T00:33:15.205Z,989.3
2018-12-05T00:34:16.468Z,989.2
2018-12-05T00:35:17.716Z,988.9
2018-12-05T00:36:19.004Z,989.2
2018-12-05T00:37:20.252Z,989.3
2018-12-05T00:38:21.579Z,989.2
2018-12-05T00:39:22.807Z,989.2
2018-12-05T00:40:24.056Z,989.3
2018-12-05T00:41:25.372Z,989.3
2018-12-05T00:42:26.624Z,989.2
2018-12-05T00:43:27.875Z,989.2
2018-12-05T00:44:31.884Z,989.2
2018-12-05T00:45:33.123Z,989.1
2018-12-05T00:46:34.404Z,989.2
2018-12-05T00:47:38.147Z,989.1
2018-12-05T00:48:39.400Z,989
2018-12-05T00:49:40.662Z,989.2
2018-12-05T00:50:41.998Z,989.3
2018-12-05T00:51:43.307Z,989.3
2018-12-05T00:52:45.348Z,989.3
2018-12-05T00:53:46.679Z,989.3
2018-12-05T00:54:47.936Z,989.3
2018-12-05T00:55:50.226Z,989.3
2018-12-05T00:56:51.516Z,989.3
2018-12-05T00:57:52.912Z,989.2
2018-12-05T00:58:54.168Z,989.2
2018-12-05T00:59:55.433Z,989.3
2018-12-05T01:00:56.696Z,989.2
2018-12-05T01:01:58.078Z,989.3
2018-12-05T01:03:04.142Z,989.3
2018-12-05T01:04:06.439Z,989.2
2018-12-05T01:05:08.619Z,989.3
2018-12-05T01:06:09.908Z,989.3
2018-12-05T01:07:11.854Z,989.3
2018-12-05T01:08:13.310Z,989.2
2018-12-05T01:09:14.561Z,989.2
2018-12-05T01:10:15.929Z,989
2018-12-05T01:11:19.960Z,989.2
2018-12-05T01:12:21.255Z,989.2
2018-12-05T01:13:22.760Z,989.1
2018-12-05T01:14:24.052Z,989.2
2018-12-05T01:15:25.296Z,989.2
2018-12-05T01:16:26.528Z,989.2
2018-12-05T01:17:28.084Z,989.2
2018-12-05T01:18:29.329Z,989.2
2018-12-05T01:19:30.584Z,989.3
2018-12-05T01:20:31.844Z,989.3
2018-12-05T01:21:40.398Z,989.4
2018-12-05T01:22:44.214Z,989.3
2018-12-05T01:23:45.476Z,989.3
2018-12-05T01:24:46.775Z,989.3
2018-12-05T01:25:48.045Z,989.3
2018-12-05T01:26:49.312Z,989.1
2018-12-05T01:27:50.616Z,989.3
2018-12-05T01:28:51.905Z,989.3
2018-12-05T01:29:53.169Z,989.3
2018-12-05T01:30:54.469Z,989.3
2018-12-05T01:31:55.718Z,989.3
2018-12-05T01:32:57.507Z,989.3
2018-12-05T01:33:58.755Z,989.4
2018-12-05T01:35:00.023Z,989.3
2018-12-05T01:36:01.284Z,989.5
2018-12-05T01:37:02.535Z,989.4
2018-12-05T01:38:03.957Z,989.5
2018-12-05T01:39:05.259Z,989.4
2018-12-05T01:40:07.804Z,989.4
2018-12-05T01:41:09.036Z,989.5
2018-12-05T01:42:10.284Z,989.5
2018-12-05T01:43:11.561Z,989.5
2018-12-05T01:44:12.807Z,989.6
2018-12-05T01:45:14.060Z,989.5
2018-12-05T01:46:21.174Z,989.3
2018-12-05T01:47:22.414Z,989.6
2018-12-05T01:48:24.213Z,989.5
2018-12-05T01:49:25.492Z,989.5
2018-12-05T01:50:26.740Z,989.5
2018-12-05T01:51:28.028Z,989.4
2018-12-05T01:52:33.562Z,989.5
2018-12-05T01:53:34.856Z,989.3
2018-12-05T01:54:36.144Z,989.4
2018-12-05T01:55:37.404Z,989.4
2018-12-05T01:56:38.662Z,989.4
2018-12-05T01:57:39.916Z,989.3
2018-12-05T01:58:41.192Z,989.4
2018-12-05T01:59:42.428Z,989.4
2018-12-05T02:00:43.712Z,989.4
2018-12-05T02:01:44.947Z,989.4
2018-12-05T02:02:46.219Z,989.4
2018-12-05T02:03:47.540Z,989.3
2018-12-05T02:04:48.779Z,989.4
2018-12-05T02:05:50.033Z,989.3
2018-12-05T02:06:51.317Z,989.3
2018-12-05T02:07:52.868Z,989.4
2018-12-05T02:08:54.167Z,989.3
2018-12-05T02:09:55.428Z,989.3
2018-12-05T02:10:56.696Z,989.4
2018-12-05T02:11:57.958Z,989.4
2018-12-05T02:12:59.221Z,989.4
2018-12-05T02:14:00.984Z,989.5
2018-12-05T02:15:02.261Z,989.4
2018-12-05T02:16:03.525Z,989.5
2018-12-05T02:17:04.760Z,989.4
2018-12-05T02:18:06.004Z,989.4
2018-12-05T02:19:07.834Z,989.4
2018-12-05T02:20:09.086Z,989.4
2018-12-05T02:21:10.339Z,989.5
2018-12-05T02:22:11.588Z,989.5
2018-12-05T02:23:12.845Z,989.5
2018-12-05T02:24:14.116Z,989.5
2018-12-05T02:25:15.365Z,989.5
2018-12-05T02:26:16.604Z,989.5
2018-12-05T02:27:22.696Z,989.5
2018-12-05T02:28:23.971Z,989.5
2018-12-05T02:29:25.227Z,989.5
2018-12-05T02:30:26.472Z,989.5
2018-12-05T02:31:27.745Z,989.5
2018-12-05T02:32:28.992Z,989.5
2018-12-05T02:33:30.252Z,989.5
2018-12-05T02:34:31.566Z,989.6
2018-12-05T02:35:32.831Z,989.5
2018-12-05T02:36:34.303Z,989.5
2018-12-05T02:37:35.544Z,989.5
2018-12-05T02:38:36.857Z,989.5
2018-12-05T02:39:40.729Z,989.5
2018-12-05T02:40:41.985Z,989.6
2018-12-05T02:41:43.229Z,989.6
2018-12-05T02:42:44.491Z,989.6
2018-12-05T02:43:45.749Z,989.5
2018-12-05T02:44:47.036Z,989.5
2018-12-05T02:45:48.285Z,989.5
2018-12-05T02:46:49.552Z,989.5
2018-12-05T02:47:50.819Z,989.5
2018-12-05T02:48:52.091Z,989.6
2018-12-05T02:49:53.412Z,989.5
2018-12-05T02:50:54.665Z,989.6
2018-12-05T02:51:55.932Z,989.6
2018-12-05T02:52:57.170Z,989.5
2018-12-05T02:53:58.443Z,989.7
2018-12-05T02:54:59.733Z,989.6
2018-12-05T02:56:00.999Z,989.7
2018-12-05T02:57:02.263Z,989.7
2018-12-05T02:58:03.548Z,989.7
2018-12-05T02:59:04.808Z,989.6
2018-12-05T03:00:06.092Z,989.7
2018-12-05T03:01:07.319Z,989.6
2018-12-05T03:02:08.569Z,989.7
2018-12-05T03:03:09.816Z,989.6
2018-12-05T03:04:11.259Z,989.6
2018-12-05T03:05:12.957Z,989.6
2018-12-05T03:06:14.200Z,989.6
2018-12-05T03:07:15.461Z,989.6
2018-12-05T03:08:16.911Z,989.6
2018-12-05T03:09:19.733Z,989.5
2018-12-05T03:10:21.013Z,989.7
2018-12-05T03:11:22.272Z,989.7
2018-12-05T03:12:23.538Z,989.6
2018-12-05T03:13:24.796Z,989.6
2018-12-05T03:14:26.068Z,989.6
2018-12-05T03:16:45.535Z,989.6
2018-12-05T03:17:46.938Z,989.5
2018-12-05T03:18:48.208Z,989.5
2018-12-05T03:19:49.463Z,989.6
2018-12-05T03:20:53.221Z,989.5
2018-12-05T03:21:54.570Z,989.5
2018-12-05T03:22:55.825Z,989.5
2018-12-05T03:23:57.089Z,989.6
2018-12-05T03:24:58.340Z,989.6
2018-12-05T03:26:25.618Z,989.5
2018-12-05T03:27:27.260Z,989.6
2018-12-05T03:28:28.505Z,989.6
2018-12-05T03:29:29.815Z,989.6
2018-12-05T03:30:31.083Z,989.7
2018-12-05T03:31:32.348Z,989.6
2018-12-05T03:32:33.646Z,989.6
2018-12-05T03:33:34.913Z,989.5
2018-12-05T03:34:36.172Z,989.5
2018-12-05T03:35:37.431Z,989.5
2018-12-05T03:36:38.704Z,989.5
2018-12-05T03:37:42.272Z,989.5
2018-12-05T03:38:44.172Z,989.6
2018-12-05T03:39:45.426Z,989.6
2018-12-05T03:40:46.668Z,989.5
2018-12-05T03:41:47.913Z,989.5
2018-12-05T03:42:49.295Z,989.5
2018-12-05T03:43:50.576Z,989.6
2018-12-05T03:44:51.828Z,989.6
2018-12-05T03:45:53.071Z,989.6
2018-12-05T03:46:57.339Z,989.6
2018-12-05T03:47:58.628Z,989.6
2018-12-05T03:48:59.954Z,989.6
2018-12-05T03:50:01.236Z,989.7
2018-12-05T03:51:02.524Z,989.6
2018-12-05T03:52:03.989Z,989.7
2018-12-05T03:53:05.565Z,989.7
2018-12-05T03:54:06.825Z,989.7
2018-12-05T03:55:10.443Z,989.8
2018-12-05T03:56:11.692Z,989.7
2018-12-05T03:57:12.945Z,989.7
2018-12-05T03:58:14.245Z,989.6
2018-12-05T03:59:16.777Z,989.5
2018-12-05T04:00:23.000Z,989.6
2018-12-05T04:01:24.252Z,989.6
2018-12-05T04:02:26.173Z,989.5
2018-12-05T04:03:27.445Z,989.6
2018-12-05T04:04:28.696Z,989.5
2018-12-05T04:05:29.937Z,989.5
2018-12-05T04:06:31.181Z,989.5
2018-12-05T04:07:32.440Z,989.5
2018-12-05T04:08:33.727Z,989.5
2018-12-05T04:09:34.983Z,989.5
2018-12-05T04:10:36.325Z,989.6
2018-12-05T04:11:37.597Z,989.6
2018-12-05T04:12:41.481Z,989.7
2018-12-05T04:13:42.761Z,989.7
2018-12-05T04:14:44.033Z,989.7
2018-12-05T04:15:45.272Z,989.7
2018-12-05T04:16:46.542Z,989.7
2018-12-05T04:17:50.968Z,989.6
2018-12-05T04:18:52.343Z,989.6
2018-12-05T04:19:53.640Z,989.6
2018-12-05T04:20:54.918Z,989.5
2018-12-05T04:21:56.168Z,989.5
2018-12-05T04:22:57.444Z,989.5
2018-12-05T04:23:58.764Z,989.6
2018-12-05T04:25:00.016Z,989.5
2018-12-05T04:26:01.313Z,989.6
2018-12-05T04:27:02.589Z,989.5
2018-12-05T04:28:03.851Z,989.6
2018-12-05T04:29:05.132Z,989.5
2018-12-05T04:30:06.377Z,989.6
2018-12-05T04:31:08.255Z,989.4
2018-12-05T04:32:09.533Z,989.5
2018-12-05T04:33:10.782Z,989.6
2018-12-05T04:34:18.129Z,989.6
2018-12-05T04:35:19.390Z,989.6
2018-12-05T04:36:21.113Z,989.6
2018-12-05T04:37:23.792Z,989.6
2018-12-05T04:38:25.035Z,989.6
2018-12-05T04:39:26.569Z,989.6
2018-12-05T04:40:27.832Z,989.7
2018-12-05T04:41:29.100Z,989.7
2018-12-05T04:42:30.369Z,989.7
2018-12-05T04:43:32.916Z,989.8
2018-12-05T04:44:34.204Z,989.7
2018-12-05T04:45:35.455Z,989.7
2018-12-05T04:46:36.692Z,989.7
2018-12-05T04:47:38.305Z,989.6
2018-12-05T04:48:39.588Z,989.7
2018-12-05T04:49:40.879Z,989.6
2018-12-05T04:50:42.171Z,989.7
2018-12-05T04:51:43.621Z,989.7
2018-12-05T04:52:44.896Z,989.7
2018-12-05T04:53:46.160Z,989.7
2018-12-05T04:54:47.715Z,989.6
2018-12-05T04:55:48.970Z,989.7
2018-12-05T04:56:50.304Z,989.8
2018-12-05T04:57:51.578Z,989.7
2018-12-05T04:58:52.862Z,989.7
2018-12-05T04:59:54.172Z,989.6
2018-12-05T05:00:55.465Z,989.7
2018-12-05T05:01:56.713Z,989.7
2018-12-05T05:02:57.948Z,989.6
2018-12-05T05:03:59.205Z,989.6
2018-12-05T05:05:00.508Z,989.6
2018-12-05T05:06:04.668Z,989.6
2018-12-05T05:07:07.800Z,989.6
2018-12-05T05:08:09.379Z,989.6
2018-12-05T05:09:10.691Z,989.5
2018-12-05T05:10:12.286Z,989.5
2018-12-05T05:11:13.521Z,989.4
2018-12-05T05:12:14.797Z,989.5
2018-12-05T05:13:16.057Z,989.2
2018-12-05T05:14:17.319Z,989.6
2018-12-05T05:15:18.617Z,989.6
2018-12-05T05:16:19.889Z,989.5
2018-12-05T05:17:21.153Z,989.6
2018-12-05T05:18:22.433Z,989.4
2018-12-05T05:19:26.087Z,989.5
2018-12-05T05:20:27.428Z,989.5
2018-12-05T05:21:28.754Z,989.5
2018-12-05T05:22:30.052Z,989.6
2018-12-05T05:23:31.562Z,989.5
2018-12-05T05:24:32.832Z,989.5
2018-12-05T05:25:34.403Z,989.5
2018-12-05T05:26:35.710Z,989.6
2018-12-05T05:27:37.090Z,989.6
2018-12-05T05:28:38.645Z,989.4
2018-12-05T05:29:39.913Z,989.6
2018-12-05T05:30:41.271Z,989.6
2018-12-05T05:31:42.531Z,989.6
2018-12-05T05:32:43.797Z,989.6
2018-12-05T05:33:45.051Z,989.5
2018-12-05T05:34:46.291Z,989.5
2018-12-05T05:35:47.608Z,989.5
2018-12-05T05:36:48.854Z,989.5
2018-12-05T05:37:50.290Z,989.4
2018-12-05T05:38:51.579Z,989.6
2018-12-05T05:39:52.921Z,989.6
2018-12-05T05:40:54.487Z,989.3
2018-12-05T05:41:55.753Z,989.6
2018-12-05T05:42:57.244Z,989.6
2018-12-05T05:43:58.525Z,989.5
2018-12-05T05:44:59.782Z,989.3
2018-12-05T05:46:01.087Z,989.4
2018-12-05T05:47:02.443Z,989.5
2018-12-05T05:48:03.709Z,989.6
2018-12-05T05:49:04.935Z,989.6
2018-12-05T05:50:06.240Z,989.6
2018-12-05T05:51:07.540Z,989.5
2018-12-05T05:52:08.800Z,989.5
2018-12-05T05:53:10.059Z,989.5
2018-12-05T05:54:11.319Z,989.5
2018-12-05T05:55:12.564Z,989.5
2018-12-05T05:56:14.585Z,989.4
2018-12-05T05:57:15.996Z,989.5
2018-12-05T05:58:17.311Z,989.4
2018-12-05T05:59:18.636Z,989.4
2018-12-05T06:00:19.956Z,989.2
2018-12-05T06:01:24.718Z,989.4
2018-12-05T06:02:25.996Z,989.5
2018-12-05T06:03:27.269Z,989.4
2018-12-05T06:04:28.553Z,989.5
2018-12-05T06:05:29.879Z,989.3
2018-12-05T06:06:31.224Z,989.4
2018-12-05T06:07:35.549Z,989.5
2018-12-05T06:08:36.810Z,989.4
2018-12-05T06:09:38.061Z,989.5
2018-12-05T06:10:39.400Z,989.3
2018-12-05T06:11:42.992Z,989.4
2018-12-05T06:12:50.267Z,989.4
2018-12-05T06:13:51.562Z,989.3
2018-12-05T06:14:55.043Z,989.5
2018-12-05T06:15:56.377Z,989.4
2018-12-05T06:16:57.694Z,989.2
2018-12-05T06:18:02.222Z,989.6
2018-12-05T06:19:05.175Z,989.6
2018-12-05T06:20:06.653Z,989.5
2018-12-05T06:21:07.916Z,989.3
2018-12-05T06:22:12.322Z,989.6
2018-12-05T06:23:13.798Z,989.6
2018-12-05T06:24:15.314Z,989.6
2018-12-05T06:25:16.617Z,989.6
2018-12-05T06:26:20.116Z,989.6
2018-12-05T06:27:22.285Z,989.7
2018-12-05T06:28:23.885Z,989.6
2018-12-05T06:29:25.185Z,989.5
2018-12-05T06:30:26.452Z,989.7
2018-12-05T06:31:28.159Z,989.6
2018-12-05T06:32:29.510Z,989.6
2018-12-05T06:33:32.967Z,989.7
2018-12-05T06:34:34.237Z,989.8
2018-12-05T06:35:35.484Z,989.7
2018-12-05T06:36:36.862Z,989.7
2018-12-05T06:37:38.221Z,989.8
2018-12-05T06:38:39.503Z,989.8
2018-12-05T06:39:42.052Z,989.8
2018-12-05T06:40:43.341Z,989.8
2018-12-05T06:41:44.620Z,989.8
2018-12-05T06:42:49.416Z,989.7
2018-12-05T06:43:50.829Z,989.8
2018-12-05T06:44:54.582Z,989.8
2018-12-05T06:45:55.932Z,989.8
2018-12-05T06:46:57.268Z,989.9
2018-12-05T06:47:58.621Z,989.8
2018-12-05T06:48:59.870Z,989.8
2018-12-05T06:50:03.933Z,989.8
2018-12-05T06:51:07.580Z,989.8
2018-12-05T06:52:08.907Z,989.9
2018-12-05T06:53:10.243Z,990
2018-12-05T06:54:11.498Z,990
2018-12-05T06:55:12.772Z,989.9
2018-12-05T06:56:15.276Z,989.9
2018-12-05T06:57:16.539Z,990
2018-12-05T06:58:17.927Z,989.8
2018-12-05T06:59:19.192Z,989.8
2018-12-05T07:00:20.517Z,989.9
2018-12-05T07:01:21.845Z,989.9
2018-12-05T07:02:23.309Z,989.9
2018-12-05T07:03:24.626Z,990
2018-12-05T07:04:27.640Z,989.9
2018-12-05T07:05:30.262Z,989.8
2018-12-05T07:06:31.635Z,989.8
2018-12-05T07:07:35.833Z,989.9
2018-12-05T07:08:37.172Z,989.7
2018-12-05T07:09:38.496Z,989.9
2018-12-05T07:10:39.861Z,990.1
2018-12-05T07:11:44.004Z,989.9
2018-12-05T07:12:45.337Z,990
2018-12-05T07:13:46.741Z,989.9
2018-12-05T07:14:48.002Z,989.9
2018-12-05T07:15:49.277Z,990
2018-12-05T07:16:53.208Z,990
2018-12-05T07:17:54.462Z,990
2018-12-05T07:18:58.427Z,989.8
2018-12-05T07:20:07.479Z,990.2
2018-12-05T07:21:08.720Z,990.3
2018-12-05T07:22:10.060Z,990.3
2018-12-05T07:23:11.381Z,990.1
2018-12-05T07:24:12.981Z,990.1
2018-12-05T07:25:14.222Z,990.1
2018-12-05T07:26:15.474Z,989.8
2018-12-05T07:27:19.055Z,990
2018-12-05T07:28:25.488Z,990.1
2018-12-05T07:29:26.842Z,990
2018-12-05T07:30:30.283Z,989.9
2018-12-05T07:31:31.560Z,990.1
2018-12-05T07:32:32.857Z,990
2018-12-05T07:33:39.208Z,990
2018-12-05T07:34:40.509Z,990.1
2018-12-05T07:35:41.890Z,990
2018-12-05T07:36:43.190Z,989.9
2018-12-05T07:37:44.456Z,989.6
2018-12-05T07:38:48.281Z,989.9
2018-12-05T07:39:49.621Z,990.1
2018-12-05T07:40:50.896Z,990.1
2018-12-05T07:41:52.201Z,990
2018-12-05T07:42:54.420Z,989.8
2018-12-05T07:43:57.590Z,990
2018-12-05T07:44:59.912Z,990.1
2018-12-05T07:46:01.205Z,990.1
2018-12-05T07:47:02.577Z,989.8
2018-12-05T07:48:04.118Z,990.1
2018-12-05T07:49:10.928Z,990.1
2018-12-05T07:50:12.292Z,989.9
2018-12-05T07:51:13.588Z,989.9
2018-12-05T07:52:14.827Z,989.9
2018-12-05T07:53:18.949Z,989.9
2018-12-05T07:54:23.140Z,989.9
2018-12-05T07:55:24.429Z,990
2018-12-05T07:56:25.707Z,990
2018-12-05T07:57:27.266Z,990
2018-12-05T07:58:28.550Z,989.9
2018-12-05T07:59:31.275Z,989.9
2018-12-05T08:00:32.735Z,989.8
2018-12-05T08:01:34.077Z,989.9
2018-12-05T08:02:35.594Z,989.8
2018-12-05T08:03:36.907Z,989.8
2018-12-05T08:04:38.217Z,989.8
2018-12-05T08:05:39.512Z,989.8
2018-12-05T08:06:40.759Z,989.9
2018-12-05T08:07:42.675Z,989.8
2018-12-05T08:08:45.325Z,989.7
2018-12-05T08:09:46.781Z,989.8
2018-12-05T08:10:48.309Z,989.7
2018-12-05T08:11:49.567Z,989.7
2018-12-05T08:12:51.181Z,989.7
2018-12-05T08:13:52.466Z,989.6
2018-12-05T08:14:54.309Z,989.7
2018-12-05T08:15:55.671Z,989.7
2018-12-05T08:16:56.944Z,989.6
2018-12-05T08:18:00.949Z,989.5
2018-12-05T08:19:04.644Z,989.8
2018-12-05T08:20:07.909Z,989.7
2018-12-05T08:21:09.694Z,989.7
2018-12-05T08:22:11.016Z,989.7
2018-12-05T08:23:17.704Z,989.6
2018-12-05T08:24:20.249Z,989.6
2018-12-05T08:25:21.504Z,989.7
2018-12-05T08:26:23.035Z,989.5
2018-12-05T08:27:24.301Z,989.6
2018-12-05T08:28:25.584Z,989.6
2018-12-05T08:29:29.124Z,989.6
2018-12-05T08:30:30.425Z,989.6
2018-12-05T08:31:34.266Z,989.6
2018-12-05T08:32:35.516Z,989.5
2018-12-05T08:33:36.857Z,989.6
2018-12-05T08:34:38.293Z,989.5
2018-12-05T08:35:39.631Z,989.5
2018-12-05T08:36:43.336Z,989.3
2018-12-05T08:37:48.076Z,989.4
2018-12-05T08:38:49.436Z,989.5
2018-12-05T08:39:50.717Z,989.4
2018-12-05T08:40:54.222Z,989.4
2018-12-05T08:41:55.542Z,989.4
2018-12-05T08:42:59.088Z,989.5
2018-12-05T08:44:00.652Z,989.3
2018-12-05T08:45:02.040Z,989.4
2018-12-05T08:46:03.412Z,989.2
2018-12-05T08:47:04.760Z,989.3
2018-12-05T08:48:11.916Z,989.4
2018-12-05T08:49:16.630Z,989.4
2018-12-05T08:50:20.366Z,989.4
2018-12-05T08:51:28.742Z,989.1
2018-12-05T08:52:30.112Z,989.4
2018-12-05T08:53:31.420Z,989.5
2018-12-05T08:54:33.746Z,989.3
2018-12-05T08:55:35.021Z,989.5
2018-12-05T08:56:36.361Z,989.5
2018-12-05T08:57:37.681Z,989.4
2018-12-05T08:58:39.031Z,989.5
2018-12-05T08:59:43.070Z,989.6
2018-12-05T09:00:45.483Z,989.5
2018-12-05T09:01:47.025Z,989.6
2018-12-05T09:02:55.054Z,989.6
2018-12-05T09:03:59.097Z,989.5
2018-12-05T09:05:00.519Z,989.5
2018-12-05T09:06:04.072Z,989.4
2018-12-05T09:07:05.392Z,989.5
2018-12-05T09:08:06.893Z,989.5
2018-12-05T09:09:09.075Z,989.6
2018-12-05T09:10:10.354Z,989.6
2018-12-05T09:11:13.837Z,989.5
2018-12-05T09:12:15.304Z,989.5
2018-12-05T09:13:17.021Z,989.5
2018-12-05T09:14:18.358Z,989.5
2018-12-05T09:15:19.815Z,989.5
2018-12-05T09:16:21.328Z,989.5
2018-12-05T09:17:22.652Z,989.4
2018-12-05T09:18:24.052Z,989.5
2018-12-05T09:19:25.324Z,989.5
2018-12-05T09:20:26.593Z,989.5
2018-12-05T09:21:30.687Z,989.4
2018-12-05T09:22:32.016Z,989.3
2018-12-05T09:23:33.368Z,989.3
2018-12-05T09:24:39.308Z,989.4
2018-12-05T09:25:40.875Z,989.4
2018-12-05T09:26:53.013Z,989.4
2018-12-05T09:27:54.671Z,989.3
2018-12-05T09:28:58.126Z,989.4
2018-12-05T09:29:59.395Z,989.2
2018-12-05T09:31:00.683Z,989.3
2018-12-05T09:32:02.305Z,989.3
2018-12-05T09:33:03.614Z,989.4
2018-12-05T09:34:05.012Z,989.3
2018-12-05T09:35:06.316Z,989.3
2018-12-05T09:36:11.561Z,989.3
2018-12-05T09:37:12.875Z,989.3
2018-12-05T09:38:15.516Z,989.3
2018-12-05T09:39:18.133Z,989.3
2018-12-05T09:40:19.431Z,989.3
2018-12-05T09:41:20.732Z,989.3
2018-12-05T09:42:22.311Z,989.2
2018-12-05T09:43:23.650Z,989.1
2018-12-05T09:44:24.981Z,989.3
2018-12-05T09:45:26.248Z,989.3
2018-12-05T09:46:29.416Z,989.3
2018-12-05T09:47:30.888Z,989.2
2018-12-05T09:48:32.185Z,989.2
2018-12-05T09:49:33.627Z,989.2
2018-12-05T09:50:34.918Z,989
2018-12-05T09:51:36.307Z,989.2
2018-12-05T09:52:37.614Z,989.2
2018-12-05T09:53:38.922Z,989.2
2018-12-05T09:54:40.255Z,989.1
2018-12-05T09:55:41.815Z,989.2
2018-12-05T09:56:43.105Z,989.2
2018-12-05T09:57:44.673Z,989.2
2018-12-05T09:58:46.571Z,989.2
2018-12-05T09:59:47.974Z,989.2
2018-12-05T10:00:49.354Z,989.2
2018-12-05T10:01:58.276Z,989.2
2018-12-05T10:03:03.511Z,989.2
2018-12-05T10:04:04.805Z,989.1
2018-12-05T10:05:08.912Z,989.1
2018-12-05T10:06:10.215Z,989.2
2018-12-05T10:07:12.686Z,988.8
2018-12-05T10:08:16.594Z,989.1
2018-12-05T10:09:20.175Z,989.2
2018-12-05T10:10:23.941Z,989.2
2018-12-05T10:11:28.095Z,989.1
2018-12-05T10:12:29.403Z,989.1
2018-12-05T10:13:30.711Z,989.1
2018-12-05T10:14:33.322Z,988.9
2018-12-05T10:15:34.752Z,988.9
2018-12-05T10:16:36.115Z,989
2018-12-05T10:17:37.439Z,989
2018-12-05T10:18:38.850Z,988.8
2018-12-05T10:19:40.429Z,988.9
2018-12-05T10:20:43.877Z,988.9
2018-12-05T10:21:48.421Z,988.9
2018-12-05T10:22:49.724Z,988.9
2018-12-05T10:23:51.279Z,988.9
2018-12-05T10:24:52.630Z,988.9
2018-12-05T10:25:54.311Z,989
2018-12-05T10:26:55.642Z,989
2018-12-05T10:27:56.932Z,988.8
2018-12-05T10:28:58.385Z,988.9
2018-12-05T10:29:59.660Z,988.8
2018-12-05T10:31:05.803Z,988.8
2018-12-05T10:32:09.545Z,988.8
2018-12-05T10:33:10.841Z,988.9
2018-12-05T10:34:12.457Z,988.7
2018-12-05T10:35:17.281Z,988.9
2018-12-05T10:36:20.838Z,988.8
2018-12-05T10:37:24.468Z,988.8
2018-12-05T10:38:25.758Z,988.8
2018-12-05T10:39:27.094Z,988.8
2018-12-05T10:40:28.665Z,988.7
2018-12-05T10:41:32.748Z,988.7
2018-12-05T10:42:34.131Z,988.7
2018-12-05T10:43:37.052Z,988.7
2018-12-05T10:44:40.453Z,988.7
2018-12-05T10:45:41.784Z,988.7
2018-12-05T10:46:43.134Z,988.7
2018-12-05T10:47:44.461Z,988.5
2018-12-05T10:48:45.896Z,988.8
2018-12-05T10:49:47.368Z,988.7
2018-12-05T10:50:52.215Z,988.8
2018-12-05T10:51:53.599Z,988.8
2018-12-05T10:52:55.091Z,988.7
2018-12-05T10:53:56.420Z,988.6
2018-12-05T10:54:57.780Z,988.6
2018-12-05T10:55:59.400Z,988.7
2018-12-05T10:57:01.145Z,988.3
2018-12-05T10:58:04.768Z,988.6
2018-12-05T10:59:06.107Z,988.5
2018-12-05T11:00:14.424Z,988.6
2018-12-05T11:01:15.931Z,988.5
2018-12-05T11:02:17.434Z,988.6
2018-12-05T11:03:18.902Z,988.5
2018-12-05T11:04:23.176Z,988.5
2018-12-05T11:05:27.581Z,988.4
2018-12-05T11:06:29.002Z,988.5
2018-12-05T11:07:30.416Z,988.3
2018-12-05T11:08:31.888Z,988.3
2018-12-05T11:09:33.435Z,988
2018-12-05T11:10:37.251Z,988.4
2018-12-05T11:11:38.582Z,988.3
2018-12-05T11:12:39.944Z,988.2
2018-12-05T11:13:41.586Z,988.2
2018-12-05T11:14:45.151Z,988.2
2018-12-05T11:15:46.744Z,988.1
2018-12-05T11:16:48.080Z,988.3
2018-12-05T11:18:00.793Z,988.4
2018-12-05T11:19:02.242Z,988.4
2018-12-05T11:20:03.868Z,988.5
2018-12-05T11:21:05.952Z,988.2
2018-12-05T11:22:12.717Z,988.4
2018-12-05T11:23:14.083Z,988.4
2018-12-05T11:24:15.389Z,988.4
2018-12-05T11:25:16.725Z,988.2
2018-12-05T11:26:25.628Z,988.4
2018-12-05T11:27:29.484Z,988.3
2018-12-05T11:28:30.801Z,988.2
2018-12-05T11:29:32.145Z,988.2
2018-12-05T11:30:33.652Z,988.1
2018-12-05T11:31:35.057Z,988.2
2018-12-05T11:32:36.544Z,988.2
2018-12-05T11:33:40.555Z,988.2
2018-12-05T11:34:42.114Z,988.2
2018-12-05T11:35:43.540Z,987.8
2018-12-05T11:36:44.886Z,988.1
2018-12-05T11:37:47.235Z,988.1
2018-12-05T11:38:48.608Z,988.2
2018-12-05T11:39:51.620Z,988.1
2018-12-05T11:40:54.702Z,988.1
2018-12-05T11:41:56.534Z,988.1
2018-12-05T11:43:02.568Z,988.1
2018-12-05T11:44:04.048Z,988
2018-12-05T11:45:05.554Z,988
2018-12-05T11:46:07.090Z,988
2018-12-05T11:47:08.398Z,988
2018-12-05T11:48:10.311Z,988
2018-12-05T11:49:11.793Z,988
2018-12-05T11:50:13.498Z,988
2018-12-05T11:51:14.796Z,987.9
2018-12-05T11:52:19.091Z,987.9
2018-12-05T11:53:23.508Z,988
2018-12-05T11:54:27.369Z,988
2018-12-05T11:55:30.300Z,988
2018-12-05T11:56:32.606Z,988
2018-12-05T11:57:34.373Z,987.9
2018-12-05T11:58:35.816Z,988
2018-12-05T11:59:37.212Z,987.9
2018-12-05T12:00:38.736Z,988
2018-12-05T12:01:40.300Z,987.9
2018-12-05T12:02:44.677Z,987.8
2018-12-05T12:03:47.692Z,987.8
2018-12-05T12:05:00.497Z,987.9
2018-12-05T12:06:03.442Z,987.8
2018-12-05T12:07:04.805Z,987.8
2018-12-05T12:08:06.242Z,987.8
2018-12-05T12:09:09.226Z,987.8
2018-12-05T12:10:10.855Z,987.8
2018-12-05T12:11:12.424Z,987.7
2018-12-05T12:12:16.185Z,987.7
2018-12-05T12:13:17.518Z,987.6
2018-12-05T12:14:22.781Z,987.8
2018-12-05T12:15:24.575Z,987.8
2018-12-05T12:16:40.424Z,987.7
2018-12-05T12:17:42.797Z,987.6
2018-12-05T12:18:48.152Z,987.7
2018-12-05T12:19:50.101Z,987.7
2018-12-05T12:20:51.756Z,987.6
2018-12-05T12:21:53.325Z,987.6
2018-12-05T12:22:55.704Z,987.7
2018-12-05T12:23:59.625Z,987.6
2018-12-05T12:25:03.174Z,987.6
2018-12-05T12:26:14.823Z,987.6
2018-12-05T12:27:16.126Z,987.6
2018-12-05T12:28:18.056Z,987.5
2018-12-05T12:29:22.353Z,987.5
2018-12-05T12:30:23.700Z,987.5
2018-12-05T12:31:25.334Z,987.5
2018-12-05T12:32:26.658Z,987.5
2018-12-05T12:33:28.082Z,987.5
2018-12-05T12:34:29.454Z,987.4
2018-12-05T12:35:32.402Z,987.4
2018-12-05T12:36:33.835Z,987.4
2018-12-05T12:37:36.771Z,987.4
2018-12-05T12:38:38.169Z,987.4
2018-12-05T12:39:39.505Z,987.3
2018-12-05T12:40:40.835Z,987.3
2018-12-05T12:41:45.491Z,987.3
2018-12-05T12:42:53.189Z,987.3
2018-12-05T12:43:55.202Z,987.2
2018-12-05T12:44:56.757Z,987.2
2018-12-05T12:46:00.510Z,987.2
2018-12-05T12:47:02.092Z,987.3
2018-12-05T12:48:03.517Z,987.3
2018-12-05T12:49:04.841Z,987.1
2018-12-05T12:50:12.376Z,987.2
2018-12-05T12:51:14.320Z,987.2
2018-12-05T12:52:15.709Z,987
2018-12-05T12:53:21.794Z,987.2
2018-12-05T12:54:25.404Z,987.1
2018-12-05T12:55:27.226Z,987.1
2018-12-05T12:56:28.507Z,987.1
2018-12-05T12:57:30.100Z,986.9
2018-12-05T12:58:31.413Z,987.1
2018-12-05T12:59:32.913Z,987
2018-12-05T13:00:40.242Z,987.1
2018-12-05T13:01:41.535Z,986.7
2018-12-05T13:02:46.362Z,987
2018-12-05T13:03:47.723Z,987
2018-12-05T13:04:49.373Z,987
2018-12-05T13:05:50.689Z,987
2018-12-05T13:06:52.735Z,987
2018-12-05T13:07:54.478Z,987
2018-12-05T13:08:55.878Z,986.8
2018-12-05T13:09:57.301Z,987
2018-12-05T13:10:58.712Z,986.7
2018-12-05T13:12:04.712Z,986.9
2018-12-05T13:13:18.098Z,986.8
2018-12-05T13:14:22.650Z,986.8
2018-12-05T13:15:26.586Z,986.8
2018-12-05T13:16:28.422Z,986.7
2018-12-05T13:17:29.833Z,986.7
2018-12-05T13:18:37.928Z,986.7
2018-12-05T13:19:39.312Z,986.6
2018-12-05T13:20:42.307Z,986.7
2018-12-05T13:21:45.772Z,986.7
2018-12-05T13:22:47.310Z,986.7
2018-12-05T13:23:48.740Z,986.7
2018-12-05T13:24:53.295Z,986.6
2018-12-05T13:25:54.971Z,986.6
2018-12-05T13:27:01.566Z,986.6